Time,TemperatureF,DewpointF,PressureIn,WindDirection,WindDirectionDegrees,WindSpeedMPH,WindSpeedGustMPH,Humidity,HourlyPrecipIn,Conditions,Clouds,dailyrainin,SoftwareType,DateUTC
2013-04-21 00:01:00,36.5,22.3,29.97,SE,135,4.7,-999.0,56,-99.99,,,0.00,Acu-Link.com,2013-04-21 06:01:00,
2013-04-21 00:16:00,36.0,22.3,29.97,SE,135,4.7,-999.0,57,-99.99,,,0.00,Acu-Link.com,2013-04-21 06:16:00,
2013-04-21 00:31:00,35.2,21.5,29.98,SE,135,4.7,-999.0,57,-99.99,,,0.00,Acu-Link.com,2013-04-21 06:31:00,
2013-04-21 00:47:00,34.3,21.5,29.98,ESE,112,1.1,-999.0,59,-99.99,,,0.00,Acu-Link.com,2013-04-21 06:47:00,
2013-04-21 01:02:00,32.9,20.2,29.99,ESE,112,2.7,-999.0,59,-99.99,,,0.00,Acu-Link.com,2013-04-21 07:02:00,
2013-04-21 01:17:00,32.5,20.6,30.00,ESE,112,1.7,-999.0,61,-99.99,,,0.00,Acu-Link.com,2013-04-21 07:17:00,
2013-04-21 01:32:00,32.2,21.0,30.00,ESE,112,3.7,-999.0,63,-99.99,,,0.00,Acu-Link.com,2013-04-21 07:32:00,
2013-04-21 01:47:00,33.6,22.4,30.00,South,180,3.7,-999.0,63,-99.99,,,0.00,Acu-Link.com,2013-04-21 07:47:00,
2013-04-21 02:03:00,32.0,20.1,30.00,ESE,112,4.2,-999.0,61,-99.99,,,0.00,Acu-Link.com,2013-04-21 08:03:00,
2013-04-21 02:18:00,31.3,20.2,30.00,SE,135,0.0,-999.0,63,-99.99,,,0.00,Acu-Link.com,2013-04-21 08:18:00,
2013-04-21 02:33:00,29.7,19.4,30.00,SE,135,2.2,-999.0,65,-99.99,,,0.00,Acu-Link.com,2013-04-21 08:33:00,
2013-04-21 02:49:00,28.4,18.9,30.00,SE,135,5.3,-999.0,67,-99.99,,,0.00,Acu-Link.com,2013-04-21 08:49:00,
2013-04-21 03:04:00,29.5,19.9,30.01,SE,135,3.7,-999.0,67,-99.99,,,0.00,Acu-Link.com,2013-04-21 09:04:00,
2013-04-21 03:19:00,28.6,19.1,30.01,SE,135,1.1,-999.0,67,-99.99,,,0.00,Acu-Link.com,2013-04-21 09:19:00,
2013-04-21 03:35:00,29.1,19.9,30.01,ESE,112,6.8,-999.0,68,-99.99,,,0.00,Acu-Link.com,2013-04-21 09:35:00,
2013-04-21 03:50:00,29.1,19.2,30.01,NNW,337,3.7,-999.0,66,-99.99,,,0.00,Acu-Link.com,2013-04-21 09:50:00,
2013-04-21 04:05:00,28.0,18.1,30.01,SE,135,0.0,-999.0,66,-99.99,,,0.00,Acu-Link.com,2013-04-21 10:05:00,
2013-04-21 04:21:00,27.0,18.5,30.01,SE,135,1.7,-999.0,70,-99.99,,,0.00,Acu-Link.com,2013-04-21 10:21:00,
2013-04-21 04:36:00,27.3,18.8,30.02,SE,135,3.7,-999.0,70,-99.99,,,0.00,Acu-Link.com,2013-04-21 10:36:00,
2013-04-21 04:52:00,27.5,19.0,30.03,SE,135,4.2,-999.0,70,-99.99,,,0.00,Acu-Link.com,2013-04-21 10:52:00,
2013-04-21 05:07:00,28.0,19.5,30.03,SE,135,5.3,-999.0,70,-99.99,,,0.00,Acu-Link.com,2013-04-21 11:07:00,
2013-04-21 05:22:00,28.4,19.9,30.04,SE,135,2.7,-999.0,70,-99.99,,,0.00,Acu-Link.com,2013-04-21 11:22:00,
2013-04-21 05:37:00,29.1,20.6,30.04,SE,135,4.2,-999.0,70,-99.99,,,0.00,Acu-Link.com,2013-04-21 11:37:00,
2013-04-21 05:52:00,29.7,20.8,30.03,SE,135,2.7,-999.0,69,-99.99,,,0.00,Acu-Link.com,2013-04-21 11:52:00,
2013-04-21 06:07:00,29.1,20.2,30.04,SE,135,2.7,-999.0,69,-99.99,,,0.00,Acu-Link.com,2013-04-21 12:07:00,
2013-04-21 06:23:00,27.5,19.0,30.05,SE,135,2.2,-999.0,70,-99.99,,,0.00,Acu-Link.com,2013-04-21 12:23:00,
2013-04-21 06:38:00,26.8,18.7,30.05,SE,135,1.1,-999.0,71,-99.99,,,0.00,Acu-Link.com,2013-04-21 12:38:00,
2013-04-21 06:53:00,27.7,19.9,30.05,SE,135,1.7,-999.0,72,-99.99,,,0.00,Acu-Link.com,2013-04-21 12:53:00,
2013-04-21 07:09:00,29.5,21.3,30.06,SE,135,0.0,-999.0,71,-99.99,,,0.00,Acu-Link.com,2013-04-21 13:09:00,
2013-04-21 07:24:00,35.2,25.0,30.06,SE,135,0.0,-999.0,66,-99.99,,,0.00,Acu-Link.com,2013-04-21 13:24:00,
2013-04-21 07:39:00,40.8,26.8,30.08,SE,135,1.7,-999.0,57,-99.99,,,0.00,Acu-Link.com,2013-04-21 13:39:00,
2013-04-21 07:55:00,43.0,27.5,30.08,SE,135,0.0,-999.0,54,-99.99,,,0.00,Acu-Link.com,2013-04-21 13:55:00,
2013-04-21 08:10:00,44.2,27.2,30.08,WNW,292,2.7,-999.0,51,-99.99,,,0.00,Acu-Link.com,2013-04-21 14:10:00,
2013-04-21 08:25:00,44.2,27.2,30.08,WNW,292,0.0,-999.0,51,-99.99,,,0.00,Acu-Link.com,2013-04-21 14:25:00,
2013-04-21 08:41:00,46.4,27.8,30.08,WNW,292,1.7,-999.0,48,-99.99,,,0.00,Acu-Link.com,2013-04-21 14:41:00,
2013-04-21 08:56:00,48.9,29.0,30.09,NW,315,3.2,-999.0,46,-99.99,,,0.00,Acu-Link.com,2013-04-21 14:56:00,
2013-04-21 09:11:00,50.5,27.1,30.08,SW,225,2.2,-999.0,40,-99.99,,,0.00,Acu-Link.com,2013-04-21 15:11:00,
2013-04-21 09:27:00,47.7,27.9,30.08,SW,225,4.2,-999.0,46,-99.99,,,0.00,Acu-Link.com,2013-04-21 15:27:00,
2013-04-21 09:44:00,48.9,28.0,30.09,NW,315,0.0,-999.0,44,-99.99,,,0.00,Acu-Link.com,2013-04-21 15:44:00,
2013-04-21 09:59:00,52.7,29.1,30.07,West,270,4.7,-999.0,40,-99.99,,,0.00,Acu-Link.com,2013-04-21 15:59:00,
2013-04-21 10:15:00,51.6,28.1,30.08,SW,225,4.2,-999.0,40,-99.99,,,0.00,Acu-Link.com,2013-04-21 16:15:00,
2013-04-21 10:30:00,52.2,26.7,30.07,SSE,157,0.0,-999.0,37,-99.99,,,0.00,Acu-Link.com,2013-04-21 16:30:00,
2013-04-21 10:45:00,56.3,28.3,30.06,WNW,292,5.3,-999.0,34,-99.99,,,0.00,Acu-Link.com,2013-04-21 16:45:00,
2013-04-21 11:01:00,55.9,27.9,30.06,North,0,2.7,-999.0,34,-99.99,,,0.00,Acu-Link.com,2013-04-21 17:01:00,
2013-04-21 11:16:00,56.7,27.9,30.06,West,270,4.7,-999.0,33,-99.99,,,0.00,Acu-Link.com,2013-04-21 17:16:00,
2013-04-21 11:31:00,57.9,29.0,30.06,WSW,247,7.3,-999.0,33,-99.99,,,0.00,Acu-Link.com,2013-04-21 17:31:00,
2013-04-21 11:47:00,56.1,26.7,30.04,SW,225,9.9,-999.0,32,-99.99,,,0.00,Acu-Link.com,2013-04-21 17:47:00,
2013-04-21 12:02:00,57.7,26.5,30.05,SSE,157,4.7,-999.0,30,-99.99,,,0.00,Acu-Link.com,2013-04-21 18:02:00,
2013-04-21 12:17:00,60.4,26.3,30.03,WSW,247,6.3,-999.0,27,-99.99,,,0.00,Acu-Link.com,2013-04-21 18:17:00,
2013-04-21 12:32:00,61.7,25.5,30.01,NNW,337,3.2,-999.0,25,-99.99,,,0.00,Acu-Link.com,2013-04-21 18:32:00,
2013-04-21 12:47:00,63.0,24.6,30.01,NNE,22,4.7,-999.0,23,-99.99,,,0.00,Acu-Link.com,2013-04-21 18:47:00,
2013-04-21 13:02:00,63.1,24.7,30.00,West,270,4.7,-999.0,23,-99.99,,,0.00,Acu-Link.com,2013-04-21 19:02:00,
2013-04-21 13:17:00,66.2,25.1,29.99,WNW,292,8.3,-999.0,21,-99.99,,,0.00,Acu-Link.com,2013-04-21 19:17:00,
2013-04-21 13:32:00,64.4,21.3,29.99,West,270,14.5,-999.0,19,-99.99,,,0.00,Acu-Link.com,2013-04-21 19:32:00,
2013-04-21 13:48:00,62.2,20.6,29.98,South,180,7.3,-999.0,20,-99.99,,,0.00,Acu-Link.com,2013-04-21 19:48:00,
2013-04-21 14:03:00,63.7,19.4,29.96,SE,135,3.2,-999.0,18,-99.99,,,0.00,Acu-Link.com,2013-04-21 20:03:00,
2013-04-21 14:18:00,64.2,15.6,29.97,ESE,112,1.7,-999.0,15,-99.99,,,0.00,Acu-Link.com,2013-04-21 20:18:00,
2013-04-21 14:33:00,64.6,12.7,29.96,South,180,5.3,-999.0,13,-99.99,,,0.00,Acu-Link.com,2013-04-21 20:33:00,
2013-04-21 14:48:00,65.8,11.8,29.94,South,180,13.5,-999.0,12,-99.99,,,0.00,Acu-Link.com,2013-04-21 20:48:00,
2013-04-21 15:04:00,66.2,15.6,29.94,SSW,202,14.5,-999.0,14,-99.99,,,0.00,Acu-Link.com,2013-04-21 21:04:00,
2013-04-21 15:19:00,66.9,14.5,29.92,WSW,247,23.3,-999.0,13,-99.99,,,0.00,Acu-Link.com,2013-04-21 21:19:00,
2013-04-21 15:34:00,66.6,12.4,29.93,SW,225,13.0,-999.0,12,-99.99,,,0.00,Acu-Link.com,2013-04-21 21:34:00,
2013-04-21 15:49:00,68.4,11.9,29.93,WSW,247,10.9,-999.0,11,-99.99,,,0.00,Acu-Link.com,2013-04-21 21:49:00,
2013-04-21 16:04:00,66.7,10.5,29.92,WSW,247,14.5,-999.0,11,-99.99,,,0.00,Acu-Link.com,2013-04-21 22:04:00,
2013-04-21 16:19:00,65.8,7.7,29.91,West,270,19.7,-999.0,10,-99.99,,,0.00,Acu-Link.com,2013-04-21 22:19:00,
2013-04-21 16:35:00,66.7,8.4,29.91,West,270,16.6,-999.0,10,-99.99,,,0.00,Acu-Link.com,2013-04-21 22:35:00,
2013-04-21 16:50:00,65.5,7.5,29.91,West,270,21.2,-999.0,10,-99.99,,,0.00,Acu-Link.com,2013-04-21 22:50:00,
2013-04-21 17:05:00,65.3,7.4,29.91,WSW,247,18.6,-999.0,10,-99.99,,,0.00,Acu-Link.com,2013-04-21 23:05:00,
2013-04-21 17:20:00,64.9,7.1,29.91,WSW,247,17.6,-999.0,10,-99.99,,,0.00,Acu-Link.com,2013-04-21 23:20:00,
2013-04-21 17:35:00,64.0,4.1,29.90,SW,225,21.7,-999.0,9,-99.99,,,0.00,Acu-Link.com,2013-04-21 23:35:00,
2013-04-21 17:50:00,63.5,3.7,29.91,SW,225,15.0,-999.0,9,-99.99,,,0.00,Acu-Link.com,2013-04-21 23:50:00,
2013-04-21 18:06:00,62.2,0.2,29.90,SW,225,16.1,-999.0,8,-99.99,,,0.00,Acu-Link.com,2013-04-22 00:06:00,
2013-04-21 18:21:00,62.6,0.5,29.90,West,270,17.6,-999.0,8,-99.99,,,0.00,Acu-Link.com,2013-04-22 00:21:00,
2013-04-21 18:36:00,61.7,2.3,29.93,WSW,247,15.5,-999.0,9,-99.99,,,0.00,Acu-Link.com,2013-04-22 00:36:00,
2013-04-21 18:51:00,61.0,1.8,29.92,West,270,14.0,-999.0,9,-99.99,,,0.00,Acu-Link.com,2013-04-22 00:51:00,
2013-04-21 19:06:00,59.9,1.0,29.92,West,270,11.9,-999.0,9,-99.99,,,0.00,Acu-Link.com,2013-04-22 01:06:00,
2013-04-21 19:21:00,58.8,2.4,29.94,WSW,247,9.9,-999.0,10,-99.99,,,0.00,Acu-Link.com,2013-04-22 01:21:00,
2013-04-21 19:36:00,57.0,3.0,29.94,WSW,247,13.5,-999.0,11,-99.99,,,0.00,Acu-Link.com,2013-04-22 01:36:00,
2013-04-21 19:51:00,54.9,1.4,29.95,WSW,247,7.3,-999.0,11,-99.99,,,0.00,Acu-Link.com,2013-04-22 01:51:00,
2013-04-21 20:06:00,52.9,1.7,29.95,WSW,247,4.7,-999.0,12,-99.99,,,0.00,Acu-Link.com,2013-04-22 02:06:00,
2013-04-21 20:22:00,50.4,3.0,29.96,SW,225,2.2,-999.0,14,-99.99,,,0.00,Acu-Link.com,2013-04-22 02:22:00,
2013-04-21 20:37:00,47.7,3.7,29.98,SW,225,3.2,-999.0,16,-99.99,,,0.00,Acu-Link.com,2013-04-22 02:37:00,
2013-04-21 20:52:00,46.9,5.6,29.97,SW,225,2.2,-999.0,18,-99.99,,,0.00,Acu-Link.com,2013-04-22 02:52:00,
2013-04-21 21:07:00,46.2,5.1,29.99,SW,225,3.7,-999.0,18,-99.99,,,0.00,Acu-Link.com,2013-04-22 03:07:00,
2013-04-21 21:23:00,46.4,5.2,29.99,SW,225,2.7,-999.0,18,-99.99,,,0.00,Acu-Link.com,2013-04-22 03:23:00,
2013-04-21 21:38:00,44.4,4.8,29.99,SSE,157,3.2,-999.0,19,-99.99,,,0.00,Acu-Link.com,2013-04-22 03:38:00,
2013-04-21 21:53:00,41.5,5.5,30.00,SSE,157,2.7,-999.0,22,-99.99,,,0.00,Acu-Link.com,2013-04-22 03:53:00,
2013-04-21 22:09:00,42.3,7.2,30.00,SSE,157,4.7,-999.0,23,-99.99,,,0.00,Acu-Link.com,2013-04-22 04:09:00,
2013-04-21 22:24:00,41.7,7.6,30.01,SE,135,7.3,-999.0,24,-99.99,,,0.00,Acu-Link.com,2013-04-22 04:24:00,
2013-04-21 22:39:00,41.4,8.3,30.01,SE,135,4.2,-999.0,25,-99.99,,,0.00,Acu-Link.com,2013-04-22 04:39:00,
2013-04-21 22:54:00,41.0,9.6,30.00,SE,135,6.8,-999.0,27,-99.99,,,0.00,Acu-Link.com,2013-04-22 04:54:00,
2013-04-21 23:09:00,40.3,9.8,30.00,SE,135,4.7,-999.0,28,-99.99,,,0.00,Acu-Link.com,2013-04-22 05:09:00,
2013-04-21 23:24:00,39.7,10.8,29.99,SE,135,6.3,-999.0,30,-99.99,,,0.00,Acu-Link.com,2013-04-22 05:24:00,
2013-04-21 23:40:00,39.2,11.1,30.00,SE,135,5.8,-999.0,31,-99.99,,,0.00,Acu-Link.com,2013-04-22 05:40:00,
2013-04-21 23:55:00,39.2,11.8,30.00,SE,135,5.8,-999.0,32,-99.99,,,0.00,Acu-Link.com,2013-04-22 05:55:00,